Time;durP1;ratioP1;P1;durP2;ratioP2;P2;SDS_P1;SDS_P2;PMS_P1;PMS_P2;Temp;Humidity;BMP_temperature;BMP_pressure;BME280_temperature;BME280_humidity;BME280_pressure;Samples;Min_cycle;Max_cycle;Signal;HPM_P1;HPM_P2
2021/12/12 00:00:39;;;;;;;1.60;1.50;;;;;;;;;;5026087;28;20280;-65
2021/12/12 00:03:14;;;;;;;0.20;0.20;;;;;;;;;;5026014;28;20226;-64
2021/12/12 00:05:44;;;;;;;0.20;0.20;;;;;;;;;;5026083;28;20315;-66
2021/12/12 00:08:11;;;;;;;0.40;0.40;;;;;;;;;;5026347;28;20527;-66
2021/12/12 00:10:39;;;;;;;0.20;0.20;;;;;;;;;;5025933;28;20471;-67
2021/12/12 00:13:09;;;;;;;0.20;0.20;;;;;;;;;;5025998;28;20212;-67
2021/12/12 00:15:35;;;;;;;0.50;0.50;;;;;;;;;;5025845;28;20212;-66
2021/12/12 00:18:02;;;;;;;0.30;0.30;;;;;;;;;;5026038;28;20401;-66
2021/12/12 00:20:29;;;;;;;0.50;0.50;;;;;;;;;;5025927;28;20213;-65
2021/12/12 00:22:59;;;;;;;0.30;0.30;;;;;;;;;;5025747;28;20228;-65
2021/12/12 00:25:25;;;;;;;0.30;0.30;;;;;;;;;;5025834;28;20225;-67
2021/12/12 00:27:52;;;;;;;4.10;3.80;;;;;;;;;;5025683;28;20244;-65
2021/12/12 00:30:18;;;;;;;1.83;1.80;;;;;;;;;;5026100;28;20205;-66
2021/12/12 00:32:44;;;;;;;0.23;0.23;;;;;;;;;;5025289;28;20204;-66
2021/12/12 00:35:12;;;;;;;0.40;0.40;;;;;;;;;;5025541;28;20212;-66
2021/12/12 00:37:38;;;;;;;0.27;0.27;;;;;;;;;;5025506;28;20264;-68
2021/12/12 00:40:08;;;;;;;0.30;0.30;;;;;;;;;;5025810;28;20251;-65
2021/12/12 00:42:36;;;;;;;0.30;0.30;;;;;;;;;;5025169;28;20201;-65
2021/12/12 00:45:05;;;;;;;0.70;0.70;;;;;;;;;;5025686;28;20227;-65
2021/12/12 00:47:31;;;;;;;0.23;0.23;;;;;;;;;;5025578;28;20200;-64
2021/12/12 00:49:57;;;;;;;0.20;0.20;;;;;;;;;;5025290;28;20248;-65
2021/12/12 00:52:24;;;;;;;0.93;0.87;;;;;;;;;;5025487;28;20201;-66
2021/12/12 00:54:51;;;;;;;0.20;0.20;;;;;;;;;;5025576;28;20551;-65
2021/12/12 00:57:21;;;;;;;0.30;0.30;;;;;;;;;;5025131;28;20280;-66
2021/12/12 00:59:48;;;;;;;0.60;0.60;;;;;;;;;;5024692;28;20205;-66
2021/12/12 01:02:15;;;;;;;0.30;0.30;;;;;;;;;;5025234;28;20526;-64
2021/12/12 01:04:43;;;;;;;0.30;0.30;;;;;;;;;;5024997;28;20263;-65
2021/12/12 01:07:13;;;;;;;1.03;1.03;;;;;;;;;;5025141;28;20218;-65
2021/12/12 01:09:41;;;;;;;4.37;4.03;;;;;;;;;;5025080;28;20293;-65
2021/12/12 01:12:11;;;;;;;0.23;0.23;;;;;;;;;;5025452;28;20201;-66
2021/12/12 01:14:42;;;;;;;1.57;1.57;;;;;;;;;;5024977;28;20202;-65
2021/12/12 01:17:10;;;;;;;0.30;0.30;;;;;;;;;;5025115;28;20251;-65
2021/12/12 01:19:39;;;;;;;0.30;0.30;;;;;;;;;;5025122;28;20220;-66
2021/12/12 01:22:07;;;;;;;12.83;11.53;;;;;;;;;;5025072;28;20202;-66
2021/12/12 01:24:35;;;;;;;0.20;0.20;;;;;;;;;;5025227;28;20208;-67
2021/12/12 01:27:02;;;;;;;4.73;2.33;;;;;;;;;;5025066;28;20209;-66
2021/12/12 01:29:29;;;;;;;0.20;0.20;;;;;;;;;;5024811;28;20197;-67
2021/12/12 01:31:59;;;;;;;0.47;0.47;;;;;;;;;;5024414;28;20242;-66
2021/12/12 01:34:28;;;;;;;0.30;0.30;;;;;;;;;;5025102;28;20268;-66
2021/12/12 01:37:09;;;;;;;0.20;0.20;;;;;;;;;;5024728;28;20450;-66
2021/12/12 01:39:36;;;;;;;0.30;0.30;;;;;;;;;;5024641;28;20297;-66
2021/12/12 01:42:05;;;;;;;0.30;0.30;;;;;;;;;;5024392;28;20201;-65
2021/12/12 01:44:35;;;;;;;0.27;0.27;;;;;;;;;;5024874;28;20208;-65
2021/12/12 01:47:04;;;;;;;0.20;0.20;;;;;;;;;;5024857;28;20244;-65
2021/12/12 01:49:33;;;;;;;0.23;0.23;;;;;;;;;;5024413;28;20208;-65
2021/12/12 01:51:59;;;;;;;3.50;3.40;;;;;;;;;;5024687;28;20201;-65
2021/12/12 01:54:29;;;;;;;0.20;0.20;;;;;;;;;;5024619;28;20305;-65
2021/12/12 01:56:59;;;;;;;2.97;2.77;;;;;;;;;;5024463;28;20202;-65
2021/12/12 01:59:26;;;;;;;2.80;2.70;;;;;;;;;;5024580;28;20252;-66
2021/12/12 02:01:54;;;;;;;0.20;0.20;;;;;;;;;;5024441;28;20244;-66
2021/12/12 02:04:23;;;;;;;0.27;0.27;;;;;;;;;;5024528;28;20317;-65
2021/12/12 02:06:51;;;;;;;2.10;2.10;;;;;;;;;;5024094;28;20355;-65
2021/12/12 02:09:19;;;;;;;1.03;1.03;;;;;;;;;;5024113;28;20267;-65
2021/12/12 02:11:46;;;;;;;0.23;0.23;;;;;;;;;;5023419;28;20529;-65
2021/12/12 02:14:16;;;;;;;0.30;0.30;;;;;;;;;;5024293;28;20527;-65
2021/12/12 02:16:43;;;;;;;0.30;0.30;;;;;;;;;;5023877;28;20198;-66
2021/12/12 02:19:10;;;;;;;0.30;0.30;;;;;;;;;;5023956;28;20303;-65
2021/12/12 02:21:53;;;;;;;0.60;0.60;;;;;;;;;;5023971;28;20363;-66
2021/12/12 02:35:06;;;;;;;3.07;2.97;;;;;;;;;;5023863;28;20265;-66
2021/12/12 02:35:43;;;;;;;0.30;0.30;;;;;;;;;;5023717;28;20192;-65
2021/12/12 02:38:10;;;;;;;0.30;0.30;;;;;;;;;;5023640;28;20280;-66
2021/12/12 02:40:39;;;;;;;6.23;5.93;;;;;;;;;;5022729;28;20205;-65
2021/12/12 02:43:07;;;;;;;0.23;0.23;;;;;;;;;;5023614;28;20453;-65
2021/12/12 02:45:35;;;;;;;0.20;0.20;;;;;;;;;;5023391;28;20201;-64
2021/12/12 02:48:05;;;;;;;0.30;0.30;;;;;;;;;;5023654;28;20244;-65
2021/12/12 02:50:34;;;;;;;0.57;0.57;;;;;;;;;;5023331;28;20223;-66
2021/12/12 02:53:05;;;;;;;0.30;0.30;;;;;;;;;;5023275;28;20209;-65
2021/12/12 02:55:33;;;;;;;0.30;0.30;;;;;;;;;;5023617;28;20194;-66
2021/12/12 02:58:03;;;;;;;3.20;3.10;;;;;;;;;;5021779;28;20275;-65
2021/12/12 03:00:31;;;;;;;0.30;0.30;;;;;;;;;;5020842;28;20255;-66
2021/12/12 03:02:59;;;;;;;1.07;1.07;;;;;;;;;;5015340;28;20224;-68
2021/12/12 03:05:27;;;;;;;0.30;0.30;;;;;;;;;;5009299;28;20252;-65
2021/12/12 03:07:54;;;;;;;3.33;3.23;;;;;;;;;;5011011;28;20256;-65
2021/12/12 03:10:23;;;;;;;0.30;0.30;;;;;;;;;;5008808;28;20209;-68
2021/12/12 03:12:49;;;;;;;0.30;0.30;;;;;;;;;;5019029;28;20406;-65
2021/12/12 03:15:18;;;;;;;0.27;0.27;;;;;;;;;;5023094;28;20248;-65
2021/12/12 03:17:46;;;;;;;0.30;0.30;;;;;;;;;;5023158;28;20225;-66
2021/12/12 03:20:23;;;;;;;0.30;0.30;;;;;;;;;;5022952;28;20225;-66
2021/12/12 03:22:49;;;;;;;0.30;0.30;;;;;;;;;;5022951;28;20228;-66
2021/12/12 03:25:15;;;;;;;0.30;0.30;;;;;;;;;;5023291;28;20243;-66
2021/12/12 03:27:42;;;;;;;0.23;0.23;;;;;;;;;;5022651;28;20219;-66
2021/12/12 03:30:09;;;;;;;0.30;0.30;;;;;;;;;;5023116;28;20243;-66
2021/12/12 03:32:36;;;;;;;1.03;0.93;;;;;;;;;;5022859;28;20348;-66
2021/12/12 03:35:04;;;;;;;0.30;0.30;;;;;;;;;;5023178;28;20270;-65
2021/12/12 03:37:30;;;;;;;0.50;0.50;;;;;;;;;;5022365;28;20267;-65
2021/12/12 03:39:58;;;;;;;0.80;0.80;;;;;;;;;;5022469;28;20205;-65
2021/12/12 03:42:26;;;;;;;1.57;1.50;;;;;;;;;;5022272;28;20217;-66
2021/12/12 03:44:54;;;;;;;0.30;0.30;;;;;;;;;;5022838;28;20212;-65
2021/12/12 03:47:24;;;;;;;0.30;0.30;;;;;;;;;;5022915;28;20201;-66
2021/12/12 03:49:51;;;;;;;0.30;0.30;;;;;;;;;;5022760;28;20247;-65
2021/12/12 03:52:19;;;;;;;0.30;0.30;;;;;;;;;;5022253;28;20205;-66
2021/12/12 03:54:47;;;;;;;0.30;0.30;;;;;;;;;;5022625;28;20247;-65
2021/12/12 03:57:13;;;;;;;0.23;0.23;;;;;;;;;;5022770;28;20201;-66
2021/12/12 03:59:39;;;;;;;0.20;0.20;;;;;;;;;;5022302;28;20225;-66
2021/12/12 04:02:06;;;;;;;0.20;0.20;;;;;;;;;;5022446;28;20201;-66
2021/12/12 04:04:34;;;;;;;0.30;0.30;;;;;;;;;;5022029;28;20206;-65
2021/12/12 04:07:02;;;;;;;0.20;0.20;;;;;;;;;;5022429;28;20233;-65
2021/12/12 04:09:29;;;;;;;0.30;0.30;;;;;;;;;;5022821;28;20252;-64
2021/12/12 04:11:57;;;;;;;0.20;0.20;;;;;;;;;;5022141;28;20307;-65
2021/12/12 04:14:23;;;;;;;0.20;0.20;;;;;;;;;;5022771;28;20229;-65
2021/12/12 04:16:52;;;;;;;0.30;0.30;;;;;;;;;;5022427;28;20197;-65
2021/12/12 04:19:18;;;;;;;0.20;0.20;;;;;;;;;;5022452;28;20264;-65
2021/12/12 04:21:45;;;;;;;0.23;0.23;;;;;;;;;;5022662;28;20209;-64
2021/12/12 04:24:17;;;;;;;0.20;0.20;;;;;;;;;;5022408;28;20500;-65
2021/12/12 04:26:44;;;;;;;0.30;0.30;;;;;;;;;;5022702;28;20190;-65
2021/12/12 04:29:13;;;;;;;0.60;0.60;;;;;;;;;;5022548;28;20216;-66
2021/12/12 04:31:41;;;;;;;0.50;0.50;;;;;;;;;;5022248;28;20200;-66
2021/12/12 04:34:08;;;;;;;0.20;0.20;;;;;;;;;;5022558;28;20276;-65
2021/12/12 04:36:36;;;;;;;0.30;0.30;;;;;;;;;;5025337;28;20194;-65
2021/12/12 04:39:06;;;;;;;0.30;0.30;;;;;;;;;;5025756;28;20225;-65
2021/12/12 04:41:34;;;;;;;0.30;0.30;;;;;;;;;;5025926;28;20198;-66
2021/12/12 04:44:00;;;;;;;0.23;0.23;;;;;;;;;;5025901;28;20205;-65
2021/12/12 04:46:37;;;;;;;0.23;0.23;;;;;;;;;;5025832;28;20489;-65
2021/12/12 04:51:50;;;;;;;1.07;1.07;;;;;;;;;;5025797;28;20247;-67
2021/12/12 04:54:22;;;;;;;0.27;0.27;;;;;;;;;;5025748;28;20371;-66
2021/12/12 04:56:53;;;;;;;0.20;0.20;;;;;;;;;;5025570;28;20189;-64
2021/12/12 04:59:21;;;;;;;0.50;0.50;;;;;;;;;;5025312;28;20431;-67
2021/12/12 05:01:55;;;;;;;0.20;0.20;;;;;;;;;;5025064;28;20236;-66
2021/12/12 05:04:23;;;;;;;0.87;0.87;;;;;;;;;;5024897;28;20194;-66
2021/12/12 05:06:52;;;;;;;0.30;0.30;;;;;;;;;;5025394;28;20220;-66
2021/12/12 05:09:26;;;;;;;0.30;0.30;;;;;;;;;;5025398;28;20401;-65
2021/12/12 05:11:57;;;;;;;0.20;0.20;;;;;;;;;;5025077;28;20477;-66
2021/12/12 05:14:25;;;;;;;0.20;0.20;;;;;;;;;;5024949;28;20205;-67
2021/12/12 05:16:54;;;;;;;0.30;0.30;;;;;;;;;;5025317;28;20248;-66
2021/12/12 05:19:23;;;;;;;0.20;0.20;;;;;;;;;;5024837;28;20264;-66
2021/12/12 05:21:52;;;;;;;0.30;0.30;;;;;;;;;;5024887;28;20201;-66
2021/12/12 05:24:20;;;;;;;0.23;0.23;;;;;;;;;;5025261;28;20220;-65
2021/12/12 05:26:49;;;;;;;0.20;0.20;;;;;;;;;;5025158;28;20505;-66
2021/12/12 05:29:19;;;;;;;0.30;0.30;;;;;;;;;;5007400;28;20278;-65
2021/12/12 05:31:46;;;;;;;0.20;0.20;;;;;;;;;;5024434;28;20200;-64
2021/12/12 05:34:13;;;;;;;0.20;0.20;;;;;;;;;;5024948;28;20273;-65
2021/12/12 05:36:40;;;;;;;0.30;0.30;;;;;;;;;;5024815;28;20546;-66
2021/12/12 05:39:06;;;;;;;0.50;0.50;;;;;;;;;;5024376;28;20225;-66
2021/12/12 05:41:33;;;;;;;0.50;0.50;;;;;;;;;;5024892;28;20520;-66
2021/12/12 05:44:00;;;;;;;0.20;0.20;;;;;;;;;;5024359;28;20201;-65
2021/12/12 05:46:28;;;;;;;0.97;0.97;;;;;;;;;;5024430;28;20201;-65
2021/12/12 05:48:54;;;;;;;3.40;3.30;;;;;;;;;;5024798;28;20240;-65
2021/12/12 05:51:21;;;;;;;4.70;3.53;;;;;;;;;;5024667;28;20207;-66
2021/12/12 05:53:49;;;;;;;0.43;0.43;;;;;;;;;;5024346;28;20228;-66
2021/12/12 05:56:16;;;;;;;0.30;0.30;;;;;;;;;;5024629;28;20251;-67
2021/12/12 05:58:42;;;;;;;0.30;0.30;;;;;;;;;;5024136;28;20241;-66
2021/12/12 06:01:11;;;;;;;0.23;0.23;;;;;;;;;;5024074;28;20211;-65
2021/12/12 06:03:42;;;;;;;0.20;0.20;;;;;;;;;;5024284;28;20197;-65
2021/12/12 06:06:09;;;;;;;0.20;0.20;;;;;;;;;;5024306;28;20229;-65
2021/12/12 06:08:36;;;;;;;0.20;0.20;;;;;;;;;;5024154;28;20202;-65
2021/12/12 06:11:04;;;;;;;0.50;0.50;;;;;;;;;;5023902;28;20209;-65
2021/12/12 06:13:31;;;;;;;0.20;0.20;;;;;;;;;;5024642;28;20384;-65
2021/12/12 06:15:58;;;;;;;0.20;0.20;;;;;;;;;;5024143;28;20232;-66
2021/12/12 06:18:25;;;;;;;0.40;0.40;;;;;;;;;;5024165;28;20209;-66
2021/12/12 06:20:53;;;;;;;0.20;0.20;;;;;;;;;;5023842;28;20221;-66
2021/12/12 06:23:20;;;;;;;0.27;0.27;;;;;;;;;;5023745;28;20205;-65
2021/12/12 06:25:47;;;;;;;0.80;0.80;;;;;;;;;;5024059;28;20205;-65
2021/12/12 06:28:15;;;;;;;0.20;0.20;;;;;;;;;;5023857;28;20208;-65
2021/12/12 06:30:41;;;;;;;0.57;0.57;;;;;;;;;;5023598;28;20201;-66
2021/12/12 06:33:07;;;;;;;0.20;0.20;;;;;;;;;;5023283;28;20213;-65
2021/12/12 06:35:33;;;;;;;0.20;0.20;;;;;;;;;;5023969;28;20493;-66
2021/12/12 06:38:04;;;;;;;0.20;0.20;;;;;;;;;;5023881;28;20208;-67
2021/12/12 06:40:30;;;;;;;0.30;0.30;;;;;;;;;;5023466;28;20256;-66
2021/12/12 06:42:58;;;;;;;7.50;7.00;;;;;;;;;;5023266;28;20202;-66
2021/12/12 06:45:25;;;;;;;0.23;0.23;;;;;;;;;;5023323;28;20232;-65
2021/12/12 06:47:51;;;;;;;0.23;0.23;;;;;;;;;;5023537;28;20224;-65
2021/12/12 06:50:17;;;;;;;0.30;0.30;;;;;;;;;;5023447;28;20205;-66
2021/12/12 06:52:44;;;;;;;0.20;0.20;;;;;;;;;;5023381;28;20499;-66
2021/12/12 06:55:12;;;;;;;0.20;0.20;;;;;;;;;;5023591;28;20205;-68
2021/12/12 06:57:43;;;;;;;0.20;0.20;;;;;;;;;;5023059;28;20213;-64
2021/12/12 07:00:12;;;;;;;0.20;0.20;;;;;;;;;;5022988;28;20229;-66
2021/12/12 07:02:40;;;;;;;0.97;0.97;;;;;;;;;;5022772;28;20201;-66
2021/12/12 07:05:07;;;;;;;0.50;0.50;;;;;;;;;;5018391;28;20397;-64
2021/12/12 07:07:33;;;;;;;0.20;0.20;;;;;;;;;;5016571;28;20458;-64
2021/12/12 07:09:59;;;;;;;0.30;0.30;;;;;;;;;;5023162;28;20292;-66
2021/12/12 07:12:27;;;;;;;0.23;0.23;;;;;;;;;;5022778;28;20208;-65
2021/12/12 07:14:54;;;;;;;0.30;0.30;;;;;;;;;;5023289;28;20519;-66
2021/12/12 07:17:21;;;;;;;0.20;0.20;;;;;;;;;;5023632;28;20208;-66
2021/12/12 07:19:48;;;;;;;0.40;0.40;;;;;;;;;;5022783;28;20267;-66
2021/12/12 07:22:15;;;;;;;0.30;0.30;;;;;;;;;;5023162;28;20431;-66
2021/12/12 07:24:42;;;;;;;0.30;0.30;;;;;;;;;;5023026;28;20228;-65
2021/12/12 07:27:09;;;;;;;0.20;0.20;;;;;;;;;;5022890;28;20205;-65
2021/12/12 07:29:37;;;;;;;0.50;0.50;;;;;;;;;;5023129;28;20431;-66
2021/12/12 07:32:04;;;;;;;0.30;0.30;;;;;;;;;;5022797;28;20213;-66
2021/12/12 07:34:30;;;;;;;16.03;3.10;;;;;;;;;;5016568;28;20205;-64
2021/12/12 07:36:59;;;;;;;0.30;0.30;;;;;;;;;;5009382;28;20253;-66
2021/12/12 07:39:28;;;;;;;0.40;0.40;;;;;;;;;;5009605;28;20232;-64
2021/12/12 07:41:55;;;;;;;0.20;0.20;;;;;;;;;;5009534;28;20205;-65
2021/12/12 07:44:23;;;;;;;0.30;0.30;;;;;;;;;;5010907;28;20384;-67
2021/12/12 07:46:51;;;;;;;6.73;6.43;;;;;;;;;;5011390;28;20244;-66
2021/12/12 07:49:19;;;;;;;0.30;0.30;;;;;;;;;;5019556;28;20213;-67
2021/12/12 07:51:45;;;;;;;0.30;0.30;;;;;;;;;;5019549;28;20201;-65
2021/12/12 07:54:12;;;;;;;0.23;0.23;;;;;;;;;;5011819;28;20202;-66
2021/12/12 07:56:39;;;;;;;0.30;0.30;;;;;;;;;;5016769;28;20213;-66
2021/12/12 07:59:06;;;;;;;0.30;0.30;;;;;;;;;;5010467;28;20225;-64
2021/12/12 08:01:33;;;;;;;0.30;0.30;;;;;;;;;;5009269;28;20201;-65
2021/12/12 08:04:02;;;;;;;0.40;0.40;;;;;;;;;;5011318;28;20205;-65
2021/12/12 08:06:30;;;;;;;0.30;0.30;;;;;;;;;;5010543;28;20229;-65
2021/12/12 08:08:57;;;;;;;0.50;0.50;;;;;;;;;;5013592;28;20202;-65
2021/12/12 08:11:24;;;;;;;0.30;0.30;;;;;;;;;;5012869;28;20221;-66
2021/12/12 08:13:51;;;;;;;0.30;0.30;;;;;;;;;;5014405;28;20193;-66
2021/12/12 08:16:18;;;;;;;0.30;0.30;;;;;;;;;;5022558;28;20201;-65
2021/12/12 08:18:45;;;;;;;0.83;0.83;;;;;;;;;;5016511;28;20252;-65
2021/12/12 08:21:13;;;;;;;0.30;0.30;;;;;;;;;;5013137;28;20257;-66
2021/12/12 08:23:40;;;;;;;1.23;1.20;;;;;;;;;;5013413;28;20206;-65
2021/12/12 08:26:09;;;;;;;0.20;0.20;;;;;;;;;;5025898;28;20308;-66
2021/12/12 08:28:35;;;;;;;0.20;0.20;;;;;;;;;;5024828;28;20248;-66
2021/12/12 08:31:02;;;;;;;0.40;0.40;;;;;;;;;;5025606;28;20198;-66
2021/12/12 08:33:29;;;;;;;0.20;0.20;;;;;;;;;;5018035;28;20401;-67
2021/12/12 08:35:56;;;;;;;0.30;0.30;;;;;;;;;;5008594;28;20229;-66
2021/12/12 08:38:24;;;;;;;0.20;0.20;;;;;;;;;;5013401;28;20260;-65
2021/12/12 08:40:52;;;;;;;0.30;0.30;;;;;;;;;;5013849;28;20225;-65
2021/12/12 08:43:19;;;;;;;0.20;0.20;;;;;;;;;;5018079;28;20559;-66
2021/12/12 08:45:47;;;;;;;0.20;0.20;;;;;;;;;;5016505;28;20206;-66
2021/12/12 08:48:14;;;;;;;0.20;0.20;;;;;;;;;;5015798;28;20213;-65
2021/12/12 08:50:42;;;;;;;0.20;0.20;;;;;;;;;;5012677;28;20494;-66
2021/12/12 08:53:09;;;;;;;0.20;0.20;;;;;;;;;;5015075;28;20244;-66
2021/12/12 08:55:44;;;;;;;1.23;1.23;;;;;;;;;;5006001;28;20207;-65
2021/12/12 08:58:15;;;;;;;0.27;0.27;;;;;;;;;;5006517;28;20243;-67
2021/12/12 09:00:43;;;;;;;1.07;1.07;;;;;;;;;;5024752;28;20232;-67
2021/12/12 09:03:10;;;;;;;0.30;0.30;;;;;;;;;;5016787;28;20281;-67
2021/12/12 09:05:38;;;;;;;0.30;0.30;;;;;;;;;;5020839;28;20225;-66
2021/12/12 09:08:07;;;;;;;0.20;0.20;;;;;;;;;;5012236;28;20210;-66
2021/12/12 09:10:38;;;;;;;0.83;0.83;;;;;;;;;;5013672;28;20411;-66
2021/12/12 09:13:10;;;;;;;0.20;0.20;;;;;;;;;;5017258;28;20285;-65
2021/12/12 09:15:38;;;;;;;0.20;0.20;;;;;;;;;;5017523;28;20198;-67
2021/12/12 09:18:07;;;;;;;0.60;0.60;;;;;;;;;;5020979;28;20228;-66
2021/12/12 09:20:46;;;;;;;0.97;0.97;;;;;;;;;;5011475;28;20229;-66
2021/12/12 09:23:14;;;;;;;0.20;0.20;;;;;;;;;;5013865;28;20210;-66
2021/12/12 09:25:50;;;;;;;0.20;0.20;;;;;;;;;;5021567;28;20501;-66
2021/12/12 09:28:21;;;;;;;0.30;0.30;;;;;;;;;;5014708;28;20201;-65
2021/12/12 09:30:47;;;;;;;0.20;0.20;;;;;;;;;;5013981;28;20489;-66
2021/12/12 09:33:18;;;;;;;0.20;0.20;;;;;;;;;;5021621;28;20210;-65
2021/12/12 09:35:48;;;;;;;0.40;0.40;;;;;;;;;;5025039;28;20194;-65
2021/12/12 09:38:16;;;;;;;0.30;0.30;;;;;;;;;;5024810;28;20255;-65
2021/12/12 09:40:56;;;;;;;0.20;0.20;;;;;;;;;;5025338;28;20225;-64
2021/12/12 09:43:34;;;;;;;0.50;0.50;;;;;;;;;;5022241;28;20488;-66
2021/12/12 09:46:03;;;;;;;0.30;0.30;;;;;;;;;;5024873;28;20251;-65
2021/12/12 09:51:43;;;;;;;0.20;0.20;;;;;;;;;;5009343;28;20488;-65
2021/12/12 09:54:24;;;;;;;0.20;0.20;;;;;;;;;;5012639;28;20214;-66
2021/12/12 09:56:56;;;;;;;0.20;0.20;;;;;;;;;;5012949;28;20501;-66
2021/12/12 09:59:32;;;;;;;0.20;0.20;;;;;;;;;;5023988;28;20213;-65
2021/12/12 10:02:07;;;;;;;0.20;0.20;;;;;;;;;;5023887;28;20201;-65
2021/12/12 10:04:39;;;;;;;0.20;0.20;;;;;;;;;;5020985;28;20198;-66
2021/12/12 10:07:10;;;;;;;0.20;0.20;;;;;;;;;;5019290;28;20229;-65
2021/12/12 10:09:38;;;;;;;0.30;0.30;;;;;;;;;;5023911;28;20198;-65
2021/12/12 10:12:06;;;;;;;0.50;0.50;;;;;;;;;;5023757;28;20523;-65
2021/12/12 10:14:40;;;;;;;0.83;0.83;;;;;;;;;;5022526;28;20220;-65
2021/12/12 10:17:09;;;;;;;0.20;0.20;;;;;;;;;;5023215;28;20494;-66
2021/12/12 10:19:40;;;;;;;0.20;0.20;;;;;;;;;;5020793;28;20213;-69
2021/12/12 10:22:12;;;;;;;0.40;0.40;;;;;;;;;;5022892;28;20386;-66
2021/12/12 10:24:41;;;;;;;0.30;0.30;;;;;;;;;;5020079;28;20289;-67
2021/12/12 10:27:09;;;;;;;0.20;0.20;;;;;;;;;;5023842;28;20248;-64
2021/12/12 10:29:42;;;;;;;0.57;0.57;;;;;;;;;;5023538;28;20316;-66
2021/12/12 10:32:12;;;;;;;0.20;0.20;;;;;;;;;;5023276;28;20221;-66
2021/12/12 10:34:42;;;;;;;0.20;0.20;;;;;;;;;;5023708;28;20312;-68
2021/12/12 10:37:10;;;;;;;0.20;0.20;;;;;;;;;;5024192;28;20272;-77
2021/12/12 10:39:39;;;;;;;0.40;0.40;;;;;;;;;;5024107;28;20247;-77
2021/12/12 10:42:09;;;;;;;0.20;0.20;;;;;;;;;;5023859;28;20556;-75
2021/12/12 10:44:41;;;;;;;0.20;0.20;;;;;;;;;;5023976;28;20244;-76
2021/12/12 10:47:12;;;;;;;0.20;0.20;;;;;;;;;;5023611;28;20208;-73
2021/12/12 10:49:41;;;;;;;0.20;0.20;;;;;;;;;;5023588;28;20551;-74
2021/12/12 10:52:09;;;;;;;0.53;0.53;;;;;;;;;;5023513;28;20205;-74
2021/12/12 10:54:39;;;;;;;0.20;0.20;;;;;;;;;;5023537;28;20205;-74
2021/12/12 10:57:08;;;;;;;0.30;0.30;;;;;;;;;;5023402;28;20212;-74
2021/12/12 10:59:36;;;;;;;0.20;0.20;;;;;;;;;;5022955;28;20206;-73
2021/12/12 11:02:04;;;;;;;0.20;0.20;;;;;;;;;;5023388;28;20251;-75
2021/12/12 11:04:37;;;;;;;0.20;0.20;;;;;;;;;;5023451;28;20218;-76
2021/12/12 11:07:05;;;;;;;0.20;0.20;;;;;;;;;;5023439;28;20224;-71
2021/12/12 11:09:38;;;;;;;0.20;0.20;;;;;;;;;;5022819;28;20267;-72
2021/12/12 11:12:11;;;;;;;2.53;2.43;;;;;;;;;;5018923;28;20580;-70
2021/12/12 11:14:39;;;;;;;0.20;0.20;;;;;;;;;;5023281;28;20216;-71
2021/12/12 11:17:09;;;;;;;0.20;0.20;;;;;;;;;;5018126;28;20233;-71
2021/12/12 11:19:40;;;;;;;0.20;0.20;;;;;;;;;;5005732;28;20206;-72
2021/12/12 11:22:10;;;;;;;0.20;0.20;;;;;;;;;;5007354;28;20222;-72
2021/12/12 11:24:39;;;;;;;0.20;0.20;;;;;;;;;;5015568;28;20270;-71
2021/12/12 11:27:07;;;;;;;2.63;2.53;;;;;;;;;;5012203;28;20209;-71
2021/12/12 11:29:35;;;;;;;0.20;0.20;;;;;;;;;;5019744;28;20576;-71
2021/12/12 11:32:03;;;;;;;0.20;0.20;;;;;;;;;;5021565;28;20201;-74
2021/12/12 11:34:30;;;;;;;0.30;0.30;;;;;;;;;;5023289;28;20490;-70
2021/12/12 11:37:06;;;;;;;1.03;1.03;;;;;;;;;;5023306;28;20205;-71
2021/12/12 11:39:34;;;;;;;0.20;0.20;;;;;;;;;;5023024;28;20189;-71
2021/12/12 11:42:03;;;;;;;2.83;2.73;;;;;;;;;;5022123;28;20246;-71
2021/12/12 11:44:32;;;;;;;0.30;0.30;;;;;;;;;;5009355;28;20207;-70
2021/12/12 11:47:04;;;;;;;0.20;0.20;;;;;;;;;;5025519;28;20408;-70
2021/12/12 11:49:37;;;;;;;0.20;0.20;;;;;;;;;;5026521;28;20489;-70
2021/12/12 11:52:08;;;;;;;0.47;0.47;;;;;;;;;;5026457;28;20551;-70
2021/12/12 11:54:41;;;;;;;0.40;0.40;;;;;;;;;;5009447;28;20201;-69
2021/12/12 11:57:11;;;;;;;0.40;0.40;;;;;;;;;;5016928;28;20193;-71
2021/12/12 11:59:41;;;;;;;0.20;0.20;;;;;;;;;;5026874;28;20259;-70
2021/12/12 12:02:17;;;;;;;3.40;3.20;;;;;;;;;;5025177;28;20225;-69
2021/12/12 12:04:55;;;;;;;0.20;0.20;;;;;;;;;;5026085;28;20263;-71
2021/12/12 12:07:25;;;;;;;0.20;0.20;;;;;;;;;;5026198;28;20304;-69
2021/12/12 12:10:04;;;;;;;0.20;0.20;;;;;;;;;;5026143;28;20481;-69
2021/12/12 12:12:41;;;;;;;0.50;0.50;;;;;;;;;;5025645;28;20266;-69
2021/12/12 12:15:11;;;;;;;0.20;0.20;;;;;;;;;;5026442;28;20207;-70
2021/12/12 12:17:47;;;;;;;1.27;1.27;;;;;;;;;;5023780;28;20492;-69
2021/12/12 12:20:22;;;;;;;0.50;0.50;;;;;;;;;;5023108;28;20236;-71
2021/12/12 12:22:53;;;;;;;0.20;0.20;;;;;;;;;;5011085;28;20282;-70
2021/12/12 12:25:24;;;;;;;0.20;0.20;;;;;;;;;;5018489;28;20197;-69
2021/12/12 12:27:53;;;;;;;0.20;0.20;;;;;;;;;;5026398;28;20260;-70
2021/12/12 12:30:41;;;;;;;0.20;0.20;;;;;;;;;;5025909;28;20213;-70
2021/12/12 12:33:41;;;;;;;0.20;0.20;;;;;;;;;;5026371;28;20261;-69
2021/12/12 12:36:44;;;;;;;0.20;0.20;;;;;;;;;;5025767;28;20201;-69
2021/12/12 12:39:31;;;;;;;0.20;0.20;;;;;;;;;;5025870;28;20208;-69
2021/12/12 12:42:16;;;;;;;0.20;0.20;;;;;;;;;;5011123;28;20413;-71
2021/12/12 12:45:01;;;;;;;0.20;0.20;;;;;;;;;;5018404;28;20418;-71
2021/12/12 12:47:45;;;;;;;0.20;0.20;;;;;;;;;;5025703;28;20201;-71
2021/12/12 12:50:38;;;;;;;0.20;0.20;;;;;;;;;;5025867;28;20392;-69
2021/12/12 12:53:33;;;;;;;1.07;1.07;;;;;;;;;;5025780;28;20202;-71
2021/12/12 12:56:09;;;;;;;0.20;0.20;;;;;;;;;;5020366;28;20257;-70
2021/12/12 12:58:44;;;;;;;0.20;0.20;;;;;;;;;;5008755;28;20209;-70
2021/12/12 13:01:14;;;;;;;0.30;0.30;;;;;;;;;;5014826;28;20221;-71
2021/12/12 13:03:46;;;;;;;0.20;0.20;;;;;;;;;;5020551;28;20206;-71
2021/12/12 13:06:28;;;;;;;0.40;0.40;;;;;;;;;;5011204;28;20252;-72
2021/12/12 13:09:19;;;;;;;0.20;0.20;;;;;;;;;;5013820;28;20225;-72
2021/12/12 13:11:51;;;;;;;0.63;0.63;;;;;;;;;;5012350;28;20440;-72
2021/12/12 13:14:25;;;;;;;0.20;0.20;;;;;;;;;;5008097;28;20209;-70
2021/12/12 13:16:55;;;;;;;0.20;0.20;;;;;;;;;;5014819;28;20210;-69
2021/12/12 13:19:38;;;;;;;0.20;0.20;;;;;;;;;;5020613;28;20218;-70
2021/12/12 13:22:08;;;;;;;0.20;0.20;;;;;;;;;;5015207;28;20265;-68
2021/12/12 13:24:42;;;;;;;0.20;0.20;;;;;;;;;;5014070;28;20207;-69
2021/12/12 13:27:17;;;;;;;0.40;0.40;;;;;;;;;;5012760;28;20201;-70
2021/12/12 13:29:55;;;;;;;0.20;0.20;;;;;;;;;;5011998;28;20198;-70
2021/12/12 13:32:27;;;;;;;0.20;0.20;;;;;;;;;;5013631;28;20242;-68
2021/12/12 13:34:57;;;;;;;0.40;0.40;;;;;;;;;;5018386;28;20232;-69
2021/12/12 13:37:28;;;;;;;0.40;0.40;;;;;;;;;;5013661;28;20201;-70
2021/12/12 13:40:04;;;;;;;0.20;0.20;;;;;;;;;;5011217;28;20206;-71
2021/12/12 13:42:35;;;;;;;0.20;0.20;;;;;;;;;;5008410;28;20210;-71
2021/12/12 13:45:06;;;;;;;0.20;0.20;;;;;;;;;;5011728;28;20197;-69
2021/12/12 13:47:42;;;;;;;0.20;0.20;;;;;;;;;;5006970;28;20201;-71
2021/12/12 13:50:13;;;;;;;0.20;0.20;;;;;;;;;;5010798;28;20240;-70
2021/12/12 13:52:43;;;;;;;0.40;0.40;;;;;;;;;;5014688;28;20261;-69
2021/12/12 13:55:13;;;;;;;0.20;0.20;;;;;;;;;;5015985;28;20199;-69
2021/12/12 13:57:46;;;;;;;0.20;0.20;;;;;;;;;;5014039;28;20497;-71
2021/12/12 14:00:16;;;;;;;0.20;0.20;;;;;;;;;;5013607;28;20697;-69
2021/12/12 14:02:44;;;;;;;0.20;0.20;;;;;;;;;;5015472;28;20537;-68
2021/12/12 14:05:12;;;;;;;0.20;0.20;;;;;;;;;;5010127;28;20213;-69
2021/12/12 14:07:41;;;;;;;0.20;0.20;;;;;;;;;;5019468;28;20201;-70
2021/12/12 14:10:11;;;;;;;0.20;0.20;;;;;;;;;;5013970;28;20252;-70
2021/12/12 14:12:39;;;;;;;0.30;0.30;;;;;;;;;;5015472;28;20199;-71
2021/12/12 14:15:06;;;;;;;0.47;0.47;;;;;;;;;;5009942;28;20318;-71
2021/12/12 14:17:36;;;;;;;0.20;0.20;;;;;;;;;;5011142;28;20212;-70
2021/12/12 14:20:07;;;;;;;0.60;0.60;;;;;;;;;;5008958;28;20215;-71
2021/12/12 14:22:33;;;;;;;0.60;0.60;;;;;;;;;;5006997;28;20225;-71
2021/12/12 14:25:03;;;;;;;0.20;0.20;;;;;;;;;;5008739;28;20232;-71
2021/12/12 14:27:30;;;;;;;0.50;0.50;;;;;;;;;;5011752;28;20198;-71
2021/12/12 14:30:00;;;;;;;0.20;0.20;;;;;;;;;;5006036;28;20216;-69
2021/12/12 14:32:31;;;;;;;0.97;0.97;;;;;;;;;;5012058;28;20202;-70
2021/12/12 14:35:01;;;;;;;0.20;0.20;;;;;;;;;;5011142;28;20278;-70
2021/12/12 14:37:29;;;;;;;0.20;0.20;;;;;;;;;;5017162;28;20267;-69
2021/12/12 14:39:59;;;;;;;0.30;0.30;;;;;;;;;;5012381;28;20398;-69
2021/12/12 14:42:26;;;;;;;0.20;0.20;;;;;;;;;;5009400;28;20296;-70
2021/12/12 14:44:53;;;;;;;0.20;0.20;;;;;;;;;;5006833;28;20339;-74
2021/12/12 14:47:30;;;;;;;0.20;0.20;;;;;;;;;;5010203;28;20361;-72
2021/12/12 14:49:59;;;;;;;0.30;0.30;;;;;;;;;;5013408;28;20383;-70
2021/12/12 14:52:26;;;;;;;0.20;0.20;;;;;;;;;;5011661;28;20510;-70
2021/12/12 14:54:55;;;;;;;0.20;0.20;;;;;;;;;;5010116;28;20256;-70
2021/12/12 14:57:26;;;;;;;1.30;1.30;;;;;;;;;;5012457;28;20210;-69
2021/12/12 14:59:56;;;;;;;0.20;0.20;;;;;;;;;;5010216;28;20205;-70
2021/12/12 15:02:27;;;;;;;1.80;1.80;;;;;;;;;;5007318;28;20221;-70
2021/12/12 15:04:56;;;;;;;0.20;0.20;;;;;;;;;;5011436;28;20248;-70
2021/12/12 15:07:24;;;;;;;0.20;0.20;;;;;;;;;;5015462;28;20290;-71
2021/12/12 15:09:51;;;;;;;0.20;0.20;;;;;;;;;;5015193;28;20285;-70
2021/12/12 15:12:19;;;;;;;0.20;0.20;;;;;;;;;;5010949;28;20499;-70